createdAt,value
2016-11-02T00:00:12.879Z,2.97
2016-11-02T00:01:21.615Z,3
2016-11-02T00:02:30.664Z,3.06
2016-11-02T00:03:39.359Z,3.05
2016-11-02T00:04:48.151Z,3.09
2016-11-02T00:05:56.843Z,3.15
2016-11-02T00:07:05.552Z,3.12
2016-11-02T00:08:14.283Z,3.15
2016-11-02T00:09:22.976Z,3.22
2016-11-02T00:10:31.732Z,3.13
2016-11-02T00:11:40.431Z,3.22
2016-11-02T00:12:49.128Z,3.21
2016-11-02T00:13:57.823Z,3.24
2016-11-02T00:15:06.564Z,3.16
2016-11-02T00:16:15.308Z,3.19
2016-11-02T00:17:24.002Z,3.18
2016-11-02T00:18:32.697Z,3.15
2016-11-02T00:19:41.393Z,3.16
2016-11-02T00:20:50.087Z,3.16
2016-11-02T00:21:58.836Z,3.21
2016-11-02T00:23:07.534Z,3.18
2016-11-02T00:24:16.230Z,3.08
2016-11-02T00:25:24.964Z,3.16
2016-11-02T00:26:33.658Z,3.11
2016-11-02T00:27:42.402Z,3.12
2016-11-02T00:28:51.093Z,3.18
2016-11-02T00:29:59.787Z,3.13
2016-11-02T00:31:08.483Z,3.13
2016-11-02T00:32:17.185Z,3.24
2016-11-02T00:33:25.982Z,3.22
2016-11-02T00:34:34.760Z,3.22
2016-11-02T00:35:43.455Z,3.24
2016-11-02T00:36:52.149Z,3.26
2016-11-02T00:38:00.839Z,3.21
2016-11-02T00:39:09.737Z,3.19
2016-11-02T00:40:18.437Z,3.27
2016-11-02T00:41:27.142Z,3.16
2016-11-02T00:42:35.843Z,3.21
2016-11-02T00:43:44.537Z,3.18
2016-11-02T00:44:53.231Z,3.18
2016-11-02T00:46:01.924Z,3.21
2016-11-02T00:47:10.620Z,3.18
2016-11-02T00:48:19.321Z,3.21
2016-11-02T00:49:28.014Z,3.22
2016-11-02T00:50:36.743Z,3.29
2016-11-02T00:51:45.433Z,3.22
2016-11-02T00:52:54.123Z,3.26
2016-11-02T00:54:02.859Z,3.37
2016-11-02T00:55:11.553Z,3.22
2016-11-02T00:56:20.281Z,3.37
2016-11-02T00:57:28.973Z,3.27
2016-11-02T00:58:37.713Z,3.33
2016-11-02T00:59:46.405Z,3.24
2016-11-02T01:00:55.103Z,3.29
2016-11-02T01:02:03.797Z,3.29
2016-11-02T01:03:12.491Z,3.31
2016-11-02T01:04:21.218Z,3.31
2016-11-02T01:05:29.911Z,3.34
2016-11-02T01:06:38.617Z,3.33
2016-11-02T01:07:47.311Z,3.43
2016-11-02T01:08:56.016Z,3.41
2016-11-02T01:10:04.711Z,3.37
2016-11-02T01:11:13.454Z,3.43
2016-11-02T01:12:22.152Z,3.46
2016-11-02T01:13:30.877Z,3.46
2016-11-02T01:14:39.572Z,3.37
2016-11-02T01:15:48.267Z,3.34
2016-11-02T01:16:56.962Z,3.33
2016-11-02T01:18:05.660Z,3.29
2016-11-02T01:19:14.352Z,3.3
2016-11-02T01:20:23.056Z,3.36
2016-11-02T01:21:31.747Z,3.33
2016-11-02T01:22:40.441Z,3.31
2016-11-02T01:23:49.453Z,3.34
2016-11-02T01:24:58.157Z,3.33
2016-11-02T01:26:06.850Z,3.4
2016-11-02T01:27:15.554Z,3.31
2016-11-02T01:28:24.281Z,3.34
2016-11-02T01:29:32.977Z,3.37
2016-11-02T01:30:41.677Z,3.33
2016-11-02T01:31:50.375Z,3.37
2016-11-02T01:32:59.072Z,3.4
2016-11-02T01:34:07.765Z,3.41
2016-11-02T01:35:16.476Z,3.36
2016-11-02T01:36:25.172Z,3.48
2016-11-02T01:37:33.867Z,3.41
2016-11-02T01:38:42.565Z,3.37
2016-11-02T01:39:51.261Z,3.4
2016-11-02T01:40:59.958Z,3.4
2016-11-02T01:42:08.685Z,3.46
2016-11-02T01:43:17.382Z,3.4
2016-11-02T01:44:26.399Z,3.29
2016-11-02T01:45:35.098Z,3.41
2016-11-02T01:46:43.789Z,3.3
2016-11-02T01:47:52.489Z,3.34
2016-11-02T01:49:01.200Z,3.36
2016-11-02T01:50:09.899Z,3.43
2016-11-02T01:51:18.592Z,3.4
2016-11-02T01:52:27.292Z,3.4
2016-11-02T01:53:35.983Z,3.45
2016-11-02T01:54:44.674Z,3.4
2016-11-02T01:55:53.365Z,3.41
2016-11-02T01:57:02.057Z,3.43
2016-11-02T01:58:10.753Z,3.43
2016-11-02T01:59:19.445Z,3.33
2016-11-02T02:00:28.134Z,3.43
2016-11-02T02:01:36.822Z,3.3
2016-11-02T02:02:45.873Z,3.34
2016-11-02T02:03:54.602Z,3.34
2016-11-02T02:05:03.298Z,3.3
2016-11-02T02:06:11.986Z,3.37
2016-11-02T02:07:20.678Z,3.37
2016-11-02T02:08:29.369Z,3.33
2016-11-02T02:09:38.060Z,3.4
2016-11-02T02:10:46.749Z,3.3
2016-11-02T02:11:55.445Z,3.33
2016-11-02T02:13:04.171Z,3.33
2016-11-02T02:14:12.864Z,3.34
2016-11-02T02:15:21.554Z,3.37
2016-11-02T02:16:30.242Z,3.37
2016-11-02T02:17:38.934Z,3.3
2016-11-02T02:18:47.624Z,3.29
2016-11-02T02:19:56.319Z,3.34
2016-11-02T02:21:05.011Z,3.49
2016-11-02T02:22:13.700Z,3.36
2016-11-02T02:23:22.392Z,3.36
2016-11-02T02:24:31.080Z,3.26
2016-11-02T02:25:39.776Z,3.27
2016-11-02T02:26:48.468Z,3.29
2016-11-02T02:27:57.168Z,3.34
2016-11-02T02:29:05.871Z,3.33
2016-11-02T02:30:14.565Z,3.31
2016-11-02T02:31:23.333Z,3.36
2016-11-02T02:32:32.024Z,3.43
2016-11-02T02:33:40.723Z,3.37
2016-11-02T02:34:49.421Z,3.33
2016-11-02T02:35:58.117Z,3.41
2016-11-02T02:37:06.856Z,3.37
2016-11-02T02:38:15.554Z,3.33
2016-11-02T02:39:24.248Z,3.37
2016-11-02T02:40:32.946Z,3.33
2016-11-02T02:41:41.641Z,3.37
2016-11-02T02:42:50.348Z,3.37
2016-11-02T02:43:59.050Z,3.4
2016-11-02T02:45:07.785Z,3.41
2016-11-02T02:46:16.483Z,3.46
2016-11-02T02:47:25.182Z,3.31
2016-11-02T02:48:33.880Z,3.34
2016-11-02T02:49:42.581Z,3.3
2016-11-02T02:50:51.279Z,3.41
2016-11-02T02:51:59.988Z,3.34
2016-11-02T02:53:08.679Z,3.37
2016-11-02T02:54:17.375Z,3.37
2016-11-02T02:55:26.075Z,3.33
2016-11-02T02:56:34.766Z,3.3
2016-11-02T02:57:43.460Z,3.33
2016-11-02T02:58:52.163Z,3.19
2016-11-02T03:00:00.864Z,3.24
2016-11-02T03:01:09.558Z,3.26
2016-11-02T03:02:18.570Z,3.24
2016-11-02T03:03:27.270Z,3.3
2016-11-02T03:04:35.967Z,3.21
2016-11-02T03:05:44.658Z,3.22
2016-11-02T03:06:53.364Z,3.3
2016-11-02T03:08:02.060Z,3.33
2016-11-02T03:09:10.757Z,3.33
2016-11-02T03:10:19.459Z,3.37
2016-11-02T03:11:28.197Z,3.31
2016-11-02T03:12:36.902Z,3.4
2016-11-02T03:13:45.647Z,3.37
2016-11-02T03:14:54.343Z,3.29
2016-11-02T03:16:03.038Z,3.22
2016-11-02T03:17:11.738Z,3.16
2016-11-02T03:18:20.430Z,3.08
2016-11-02T03:19:29.120Z,3.08
2016-11-02T03:20:37.821Z,3.01
2016-11-02T03:21:46.518Z,3.03
2016-11-02T03:22:55.215Z,3.09
2016-11-02T03:24:04.220Z,3.08
2016-11-02T03:25:12.918Z,3.03
2016-11-02T03:26:21.638Z,3.01
2016-11-02T03:27:30.332Z,2.95
2016-11-02T03:28:39.030Z,2.88
2016-11-02T03:29:47.762Z,2.95
2016-11-02T03:30:56.514Z,2.94
2016-11-02T03:32:05.213Z,2.98
2016-11-02T03:33:14.218Z,2.88
2016-11-02T03:34:22.912Z,2.62
2016-11-02T03:35:31.619Z,2.62
2016-11-02T03:36:40.312Z,2.61
2016-11-02T03:37:49.008Z,2.61
2016-11-02T03:38:57.707Z,2.62
2016-11-02T03:40:06.436Z,2.73
2016-11-02T03:41:15.455Z,2.76
2016-11-02T03:42:24.148Z,2.77
2016-11-02T03:43:32.850Z,2.77
2016-11-02T03:44:41.545Z,2.88
2016-11-02T03:45:50.238Z,2.87
2016-11-02T03:46:58.941Z,2.76
2016-11-02T03:48:07.635Z,2.9
2016-11-02T03:49:16.327Z,2.73
2016-11-02T03:50:25.027Z,2.88
2016-11-02T03:51:33.721Z,2.91
2016-11-02T03:52:42.423Z,2.9
2016-11-02T03:53:51.131Z,2.88
2016-11-02T03:54:59.835Z,2.88
2016-11-02T03:56:08.532Z,2.9
2016-11-02T03:57:17.237Z,2.83
2016-11-02T03:58:25.946Z,2.7
2016-11-02T03:59:34.646Z,2.7
2016-11-02T04:00:43.344Z,2.64
2016-11-02T04:01:52.041Z,2.65
2016-11-02T04:03:00.746Z,2.73
2016-11-02T04:04:09.488Z,2.68
2016-11-02T04:05:18.176Z,2.64
2016-11-02T04:06:26.872Z,2.68
2016-11-02T04:07:35.603Z,2.62
2016-11-02T04:08:44.295Z,2.59
2016-11-02T04:09:52.988Z,2.64
2016-11-02T04:11:01.721Z,2.52
2016-11-02T04:12:10.727Z,2.58
2016-11-02T04:13:19.434Z,2.58
2016-11-02T04:14:28.125Z,2.57
2016-11-02T04:15:36.828Z,2.52
2016-11-02T04:16:45.538Z,2.52
2016-11-02T04:17:54.231Z,2.5
2016-11-02T04:19:02.925Z,2.54
2016-11-02T04:20:11.619Z,2.41
2016-11-02T04:21:20.347Z,2.41
2016-11-02T04:22:29.038Z,2.43
2016-11-02T04:23:37.746Z,2.39
2016-11-02T04:24:46.445Z,2.43
2016-11-02T04:25:55.143Z,2.4
2016-11-02T04:27:03.837Z,2.28
2016-11-02T04:28:12.539Z,2.34
2016-11-02T04:29:21.235Z,2.21
2016-11-02T04:30:29.924Z,2.25
2016-11-02T04:31:38.617Z,2.36
2016-11-02T04:32:47.308Z,2.34
2016-11-02T04:33:56.001Z,2.4
2016-11-02T04:35:04.704Z,2.37
2016-11-02T04:36:13.396Z,2.41
2016-11-02T04:37:22.094Z,2.4
2016-11-02T04:38:30.792Z,2.34
2016-11-02T04:39:39.494Z,2.33
2016-11-02T04:40:48.193Z,2.36
2016-11-02T04:41:56.886Z,2.36
2016-11-02T04:43:05.581Z,2.19
2016-11-02T04:44:14.276Z,2.32
2016-11-02T04:45:23.011Z,2.33
2016-11-02T04:46:31.714Z,2.32
2016-11-02T04:47:40.415Z,2.36
2016-11-02T04:48:49.144Z,2.39
2016-11-02T04:49:57.838Z,2.39
2016-11-02T04:51:06.534Z,2.4
2016-11-02T04:52:15.263Z,2.4
2016-11-02T04:53:23.959Z,2.4
2016-11-02T04:54:32.657Z,2.41
2016-11-02T04:55:41.353Z,2.44
2016-11-02T04:56:50.048Z,2.46
2016-11-02T04:57:58.742Z,2.44
2016-11-02T04:59:07.436Z,2.51
2016-11-02T05:00:16.132Z,2.51
2016-11-02T05:01:24.830Z,2.5
2016-11-02T05:02:33.562Z,2.52
2016-11-02T05:03:42.262Z,2.55
2016-11-02T05:04:50.958Z,2.62
2016-11-02T05:05:59.658Z,2.64
2016-11-02T05:07:08.394Z,2.62
2016-11-02T05:08:17.088Z,2.69
2016-11-02T05:09:25.777Z,2.73
2016-11-02T05:10:34.518Z,2.85
2016-11-02T05:11:43.213Z,2.93
2016-11-02T05:12:51.901Z,2.91
2016-11-02T05:14:00.591Z,2.93
2016-11-02T05:15:09.289Z,2.91
2016-11-02T05:16:17.985Z,2.91
2016-11-02T05:17:26.682Z,2.83
2016-11-02T05:18:35.389Z,2.76
2016-11-02T05:19:44.092Z,2.73
2016-11-02T05:20:52.788Z,2.76
2016-11-02T05:22:01.482Z,2.8
2016-11-02T05:23:10.178Z,2.77
2016-11-02T05:24:18.903Z,2.87
2016-11-02T05:25:27.600Z,2.91
2016-11-02T05:26:36.352Z,2.94
2016-11-02T05:27:45.104Z,2.9
2016-11-02T05:28:53.797Z,2.97
2016-11-02T05:30:02.495Z,2.98
2016-11-02T05:31:11.194Z,2.95
2016-11-02T05:32:19.885Z,2.97
2016-11-02T05:33:28.581Z,2.98
2016-11-02T05:34:37.320Z,2.97
2016-11-02T05:35:46.018Z,2.97
2016-11-02T05:36:54.709Z,2.94
2016-11-02T05:38:03.406Z,2.9
2016-11-02T05:39:12.105Z,2.93
2016-11-02T05:40:20.841Z,2.98
2016-11-02T05:41:29.535Z,2.95
2016-11-02T05:42:38.234Z,2.85
2016-11-02T05:43:46.924Z,2.93
2016-11-02T05:44:55.945Z,2.94
2016-11-02T05:46:04.645Z,2.9
2016-11-02T05:47:13.340Z,2.73
2016-11-02T05:48:22.034Z,2.87
2016-11-02T05:49:30.733Z,2.82
2016-11-02T05:50:39.431Z,2.76
2016-11-02T05:51:48.130Z,2.73
2016-11-02T05:52:56.826Z,2.76
2016-11-02T05:54:05.527Z,2.76
2016-11-02T05:55:14.229Z,2.87
2016-11-02T05:56:22.921Z,2.98
2016-11-02T05:57:31.929Z,2.91
2016-11-02T05:58:40.638Z,2.9
2016-11-02T05:59:49.648Z,2.95
2016-11-02T06:00:58.347Z,2.88
2016-11-02T06:02:07.048Z,2.97
2016-11-02T06:03:15.757Z,3
2016-11-02T06:04:24.824Z,2.98
2016-11-02T06:05:33.523Z,2.98
2016-11-02T06:06:42.218Z,2.93
2016-11-02T06:07:50.916Z,2.91
2016-11-02T06:08:59.613Z,2.95
2016-11-02T06:10:08.306Z,2.9
2016-11-02T06:11:17.005Z,2.91
2016-11-02T06:12:25.697Z,2.9
2016-11-02T06:13:34.427Z,2.76
2016-11-02T06:14:43.120Z,2.72
2016-11-02T06:15:51.814Z,2.75
2016-11-02T06:17:00.554Z,2.77
2016-11-02T06:18:09.249Z,2.77
2016-11-02T06:19:17.941Z,2.82
2016-11-02T06:20:26.638Z,2.73
2016-11-02T06:21:35.369Z,2.68
2016-11-02T06:22:44.060Z,2.64
2016-11-02T06:23:52.751Z,2.62
2016-11-02T06:25:01.444Z,2.57
2016-11-02T06:26:10.139Z,2.69
2016-11-02T06:27:18.871Z,2.64
2016-11-02T06:28:27.601Z,2.64
2016-11-02T06:29:36.300Z,2.64
2016-11-02T06:30:45.006Z,2.7
2016-11-02T06:31:53.701Z,2.72
2016-11-02T06:33:02.396Z,2.77
2016-11-02T06:34:11.093Z,2.76
2016-11-02T06:35:19.784Z,2.76
2016-11-02T06:36:28.487Z,2.76
2016-11-02T06:37:37.189Z,2.77
2016-11-02T06:38:45.926Z,2.76
2016-11-02T06:39:54.662Z,2.82
2016-11-02T06:41:03.360Z,2.76
2016-11-02T06:42:12.063Z,2.75
2016-11-02T06:43:20.760Z,2.73
2016-11-02T06:44:29.453Z,2.91
2016-11-02T06:45:38.143Z,2.76
2016-11-02T06:46:47.186Z,2.87
2016-11-02T06:47:55.884Z,2.9
2016-11-02T06:49:04.899Z,2.75
2016-11-02T06:50:13.604Z,2.82
2016-11-02T06:51:22.300Z,2.82
2016-11-02T06:52:30.996Z,2.75
2016-11-02T06:53:39.694Z,2.88
2016-11-02T06:54:48.422Z,2.87
2016-11-02T06:55:57.163Z,2.87
2016-11-02T06:57:05.860Z,2.91
2016-11-02T06:58:14.568Z,2.91
2016-11-02T06:59:23.358Z,2.88
2016-11-02T07:00:32.048Z,2.88
2016-11-02T07:01:41.069Z,2.97
2016-11-02T07:02:49.800Z,2.93
2016-11-02T07:03:58.496Z,2.98
2016-11-02T07:05:07.209Z,2.88
2016-11-02T07:06:15.914Z,2.97
2016-11-02T07:07:24.925Z,2.94
2016-11-02T07:08:33.618Z,2.94
2016-11-02T07:09:42.321Z,3.06
2016-11-02T07:10:51.329Z,3
2016-11-02T07:12:00.023Z,2.97
2016-11-02T07:13:08.718Z,2.93
2016-11-02T07:14:17.417Z,2.94
2016-11-02T07:15:26.151Z,2.93
2016-11-02T07:16:34.839Z,3.01
2016-11-02T07:17:43.531Z,2.95
2016-11-02T07:18:52.226Z,2.98
2016-11-02T07:20:00.922Z,3.05
2016-11-02T07:21:09.620Z,3.05
2016-11-02T07:22:18.314Z,3.09
2016-11-02T07:23:27.378Z,3.09
2016-11-02T07:24:36.080Z,3.09
2016-11-02T07:25:44.773Z,3.13
2016-11-02T07:26:53.472Z,3.21
2016-11-02T07:28:02.349Z,3.11
2016-11-02T07:29:11.128Z,3.06
2016-11-02T07:30:19.822Z,3
2016-11-02T07:31:28.517Z,3.03
2016-11-02T07:32:37.206Z,3.09
2016-11-02T07:33:45.940Z,3.03
2016-11-02T07:34:54.640Z,3.01
2016-11-02T07:36:03.347Z,3.01
2016-11-02T07:37:12.042Z,3
2016-11-02T07:38:20.738Z,3.09
2016-11-02T07:39:29.436Z,3.08
2016-11-02T07:40:38.137Z,2.94
2016-11-02T07:41:46.831Z,2.87
2016-11-02T07:42:55.525Z,2.91
2016-11-02T07:44:04.231Z,3.03
2016-11-02T07:45:12.930Z,2.88
2016-11-02T07:46:21.622Z,2.88
2016-11-02T07:47:30.318Z,3.01
2016-11-02T07:48:39.125Z,3.06
2016-11-02T07:49:47.829Z,3.03
2016-11-02T07:50:56.549Z,3.01
2016-11-02T07:52:05.260Z,2.95
2016-11-02T07:53:14.270Z,3.03
2016-11-02T07:54:22.974Z,3.01
2016-11-02T07:55:31.665Z,2.98
2016-11-02T07:56:40.368Z,2.98
2016-11-02T07:57:49.059Z,3.01
2016-11-02T07:58:57.787Z,3.08
2016-11-02T08:00:06.484Z,3.15
2016-11-02T08:01:15.178Z,3.13
2016-11-02T08:02:23.872Z,3.21
2016-11-02T08:03:32.564Z,3.15
2016-11-02T08:04:41.276Z,3.13
2016-11-02T08:05:50.294Z,3.21
2016-11-02T08:06:58.993Z,3.09
2016-11-02T08:08:07.696Z,3.16
2016-11-02T08:09:16.397Z,3.13
2016-11-02T08:10:25.095Z,3.11
2016-11-02T08:11:33.789Z,3.12
2016-11-02T08:12:42.491Z,3.08
2016-11-02T08:13:51.197Z,3.08
2016-11-02T08:14:59.895Z,3.08
2016-11-02T08:16:08.603Z,3.11
2016-11-02T08:17:17.297Z,3.08
2016-11-02T08:18:25.998Z,3.08
2016-11-02T08:19:34.691Z,3.05
2016-11-02T08:20:43.385Z,3.11
2016-11-02T08:21:52.080Z,3.22
2016-11-02T08:23:00.780Z,3.11
2016-11-02T08:24:09.792Z,3.18
2016-11-02T08:25:18.490Z,3.21
2016-11-02T08:26:27.216Z,3.26
2016-11-02T08:27:35.914Z,3.21
2016-11-02T08:28:44.648Z,3.24
2016-11-02T08:29:53.339Z,3.22
2016-11-02T08:31:02.042Z,3.21
2016-11-02T08:32:10.779Z,3.3
2016-11-02T08:33:19.510Z,3.19
2016-11-02T08:34:28.206Z,3.12
2016-11-02T08:35:36.965Z,3.05
2016-11-02T08:36:45.672Z,3.03
2016-11-02T08:37:54.407Z,2.97
2016-11-02T08:39:03.109Z,3.03
2016-11-02T08:40:11.800Z,2.93
2016-11-02T08:41:20.492Z,2.95
2016-11-02T08:42:29.197Z,2.95
2016-11-02T08:43:37.934Z,3
2016-11-02T08:44:46.632Z,3.08
2016-11-02T08:45:55.328Z,2.93
2016-11-02T08:47:04.055Z,3.01
2016-11-02T08:48:12.749Z,3.06
2016-11-02T08:49:21.445Z,3.03
2016-11-02T08:50:30.153Z,3.05
2016-11-02T08:51:38.852Z,3.13
2016-11-02T08:52:47.544Z,3.16
2016-11-02T08:53:56.242Z,3.21
2016-11-02T08:55:04.936Z,3.3
2016-11-02T08:56:13.635Z,3.37
2016-11-02T08:57:22.329Z,3.27
2016-11-02T08:58:31.026Z,3.33
2016-11-02T08:59:39.741Z,3.33
2016-11-02T09:00:48.440Z,3.34
2016-11-02T09:01:57.135Z,3.5
2016-11-02T09:03:06.141Z,3.49
2016-11-02T09:04:14.833Z,3.58
2016-11-02T09:05:23.536Z,3.49
2016-11-02T09:06:32.239Z,3.48
2016-11-02T09:07:40.929Z,3.66
2016-11-02T09:08:49.627Z,3.67
2016-11-02T09:09:58.325Z,3.82
2016-11-02T09:11:07.018Z,4.13
2016-11-02T09:12:15.714Z,4.16
2016-11-02T09:13:24.407Z,4.14
2016-11-02T09:14:33.103Z,4.21
2016-11-02T09:15:41.836Z,4.18
2016-11-02T09:16:50.532Z,4.06
2016-11-02T09:17:59.274Z,4.25
2016-11-02T09:19:07.971Z,4.27
2016-11-02T09:20:16.661Z,4.45
2016-11-02T09:21:25.363Z,4.32
2016-11-02T09:22:34.054Z,4.3
2016-11-02T09:23:42.743Z,4.49
2016-11-02T09:24:51.442Z,4.58
2016-11-02T09:26:00.140Z,4.61
2016-11-02T09:27:08.843Z,4.49
2016-11-02T09:28:17.536Z,4.64
2016-11-02T09:29:26.235Z,4.6
2016-11-02T09:30:34.927Z,4.45
2016-11-02T09:31:43.624Z,4.52
2016-11-02T09:32:52.332Z,4.67
2016-11-02T09:34:01.062Z,4.64
2016-11-02T09:35:09.763Z,4.75
2016-11-02T09:36:18.457Z,4.58
2016-11-02T09:37:27.155Z,4.71
2016-11-02T09:38:35.843Z,4.89
2016-11-02T09:39:44.535Z,4.95
2016-11-02T09:40:53.240Z,5.01
2016-11-02T09:42:01.937Z,5.1
2016-11-02T09:43:10.782Z,5.18
2016-11-02T09:44:19.475Z,5.13
2016-11-02T09:45:28.173Z,5.05
2016-11-02T09:46:36.869Z,5.01
2016-11-02T09:47:45.615Z,5.01
2016-11-02T09:48:54.562Z,5.02
2016-11-02T09:50:03.263Z,4.82
2016-11-02T09:51:12.001Z,4.86
2016-11-02T09:52:20.701Z,5
2016-11-02T09:53:30.363Z,5.18
2016-11-02T09:54:38.452Z,5.12
2016-11-02T09:55:47.155Z,5.16
2016-11-02T09:56:55.852Z,5.25
2016-11-02T09:58:04.551Z,5.26
2016-11-02T09:59:13.259Z,5.31
2016-11-02T10:00:21.968Z,5.25
2016-11-02T10:01:30.662Z,5.19
2016-11-02T10:02:39.365Z,5.26
2016-11-02T10:03:48.063Z,5.22
2016-11-02T10:04:57.074Z,5.19
2016-11-02T10:06:05.775Z,5.22
2016-11-02T10:07:14.480Z,5.29
2016-11-02T10:08:23.172Z,5.01
2016-11-02T10:09:31.871Z,5
2016-11-02T10:10:40.943Z,5.01
2016-11-02T10:11:49.968Z,5
2016-11-02T10:12:59.024Z,5.01
2016-11-02T10:14:07.720Z,4.84
2016-11-02T10:15:16.417Z,4.76
2016-11-02T10:16:25.116Z,4.76
2016-11-02T10:17:33.816Z,4.82
2016-11-02T10:18:43.107Z,5.07
2016-11-02T10:19:51.812Z,5.02
2016-11-02T10:21:00.544Z,5.12
2016-11-02T10:22:09.242Z,5.16
2016-11-02T10:23:17.942Z,5.23
2016-11-02T10:24:26.637Z,5.28
2016-11-02T10:25:35.333Z,5.34
2016-11-02T10:26:44.039Z,5.2
2016-11-02T10:27:52.731Z,5.16
2016-11-02T10:29:01.427Z,5.19
2016-11-02T10:30:10.125Z,5.26
2016-11-02T10:31:18.820Z,5.49
2016-11-02T10:32:27.840Z,5.83
2016-11-02T10:33:36.535Z,6.19
2016-11-02T10:34:45.227Z,6.19
2016-11-02T10:35:53.930Z,5.76
2016-11-02T10:37:02.630Z,5.33
2016-11-02T10:38:11.331Z,5.07
2016-11-02T10:39:20.027Z,4.98
2016-11-02T10:40:28.720Z,4.82
2016-11-02T10:41:37.419Z,4.83
2016-11-02T10:42:46.121Z,4.71
2016-11-02T10:43:54.820Z,4.61
2016-11-02T10:45:03.513Z,4.67
2016-11-02T10:46:12.523Z,4.7
2016-11-02T10:47:21.218Z,4.82
2016-11-02T10:48:29.907Z,4.76
2016-11-02T10:49:38.600Z,4.89
2016-11-02T10:50:47.298Z,5.05
2016-11-02T10:51:56.003Z,5.15
2016-11-02T10:53:04.709Z,5.19
2016-11-02T10:54:13.405Z,5.29
2016-11-02T10:55:22.111Z,5.29
2016-11-02T10:56:30.807Z,5.46
2016-11-02T10:57:39.515Z,5.64
2016-11-02T10:58:48.218Z,5.67
2016-11-02T10:59:56.912Z,5.94
2016-11-02T11:01:05.605Z,5.98
2016-11-02T11:02:14.335Z,6.25
2016-11-02T11:03:23.349Z,6.43
2016-11-02T11:04:32.042Z,6.47
2016-11-02T11:05:40.738Z,7
2016-11-02T11:06:49.428Z,7.22
2016-11-02T11:07:58.122Z,7.36
2016-11-02T11:09:06.812Z,7.37
2016-11-02T11:10:15.512Z,7.23
2016-11-02T11:11:24.203Z,7.4
2016-11-02T11:12:32.896Z,8.56
2016-11-02T11:13:41.588Z,9.15
2016-11-02T11:14:50.285Z,10.34
2016-11-02T11:15:58.986Z,11.19
2016-11-02T11:17:07.689Z,11.45
2016-11-02T11:18:16.387Z,11.96
2016-11-02T11:19:25.094Z,12.15
2016-11-02T11:20:33.790Z,11.77
2016-11-02T11:21:42.486Z,12.07
2016-11-02T11:22:51.188Z,11.85
2016-11-02T11:23:59.888Z,11.41
2016-11-02T11:25:08.588Z,11.35
2016-11-02T11:26:17.289Z,11.96
2016-11-02T11:27:25.984Z,13.05
2016-11-02T11:28:34.739Z,13.67
2016-11-02T11:29:43.446Z,12.73
2016-11-02T11:30:52.152Z,11.34
2016-11-02T11:32:00.864Z,10
2016-11-02T11:33:09.880Z,9.48
2016-11-02T11:34:18.584Z,8.95
2016-11-02T11:35:27.284Z,8.18
2016-11-02T11:36:35.987Z,8.78
2016-11-02T11:37:44.689Z,9.22
2016-11-02T11:38:53.394Z,9.42
2016-11-02T11:40:02.094Z,8.86
2016-11-02T11:41:10.796Z,8.35
2016-11-02T11:42:19.498Z,7.69
2016-11-02T11:43:28.190Z,7.04
2016-11-02T11:44:36.892Z,7.08
2016-11-02T11:45:45.903Z,7.23
2016-11-02T11:46:54.606Z,7.56
2016-11-02T11:48:03.303Z,9.63
2016-11-02T11:49:12.006Z,10.92
2016-11-02T11:50:20.719Z,11.68
2016-11-02T11:51:29.423Z,12.65
2016-11-02T11:52:38.131Z,12.9
2016-11-02T11:53:46.832Z,12.87
2016-11-02T11:54:55.567Z,11.44
2016-11-02T11:56:04.616Z,10.68
2016-11-02T11:57:13.319Z,10.43
2016-11-02T11:58:22.020Z,9.11
2016-11-02T11:59:30.720Z,8.5
2016-11-02T12:00:39.461Z,8.34
2016-11-02T12:01:48.160Z,8.36
2016-11-02T12:02:56.906Z,8.2
2016-11-02T12:04:05.610Z,7.72
2016-11-02T12:05:14.323Z,6.92
2016-11-02T12:06:23.076Z,6.13
2016-11-02T12:07:31.796Z,6.07
2016-11-02T12:08:40.498Z,5.99
2016-11-02T12:09:49.196Z,6.09
2016-11-02T12:10:57.933Z,6.34
2016-11-02T12:12:06.631Z,6.16
2016-11-02T12:13:15.335Z,6.05
2016-11-02T12:14:24.032Z,6.19
2016-11-02T12:15:32.732Z,6.38
2016-11-02T12:16:41.428Z,6.47
2016-11-02T12:17:50.127Z,6.59
2016-11-02T12:18:58.860Z,6.5
2016-11-02T12:20:07.557Z,6.53
2016-11-02T12:21:16.269Z,6.46
2016-11-02T12:22:24.965Z,6.47
2016-11-02T12:23:33.659Z,6.38
2016-11-02T12:24:42.356Z,5.84
2016-11-02T12:25:51.085Z,5.37
2016-11-02T12:26:59.806Z,5.31
2016-11-02T12:28:08.518Z,5.1
2016-11-02T12:29:17.253Z,5.01
2016-11-02T12:30:25.957Z,5
2016-11-02T12:31:34.691Z,5.07
2016-11-02T12:32:43.387Z,5
2016-11-02T12:33:52.087Z,5.02
2016-11-02T12:35:00.786Z,5.22
2016-11-02T12:36:09.482Z,5.12
2016-11-02T12:37:18.181Z,4.82
2016-11-02T12:38:26.877Z,4.71
2016-11-02T12:39:35.578Z,4.6
2016-11-02T12:40:44.274Z,4.63
2016-11-02T12:41:52.970Z,4.61
2016-11-02T12:43:01.663Z,4.49
2016-11-02T12:44:10.364Z,4.48
2016-11-02T12:45:19.061Z,4.42
2016-11-02T12:46:27.757Z,4.4
2016-11-02T12:47:36.460Z,4.38
2016-11-02T12:48:45.159Z,4.36
2016-11-02T12:49:53.863Z,4.21
2016-11-02T12:51:02.599Z,4.02
2016-11-02T12:52:11.348Z,3.99
2016-11-02T12:53:20.043Z,4.06
2016-11-02T12:54:28.737Z,4.2
2016-11-02T12:55:37.442Z,4.22
2016-11-02T12:56:46.134Z,4.24
2016-11-02T12:57:54.839Z,4.34
2016-11-02T12:59:03.537Z,4.36
2016-11-02T13:00:12.552Z,4.31
2016-11-02T13:01:21.255Z,4.43
2016-11-02T13:02:29.946Z,4.42
2016-11-02T13:03:38.642Z,4.57
2016-11-02T13:04:47.334Z,4.48
2016-11-02T13:05:56.030Z,4.56
2016-11-02T13:07:04.728Z,4.57
2016-11-02T13:08:13.420Z,4.6
2016-11-02T13:09:22.148Z,4.83
2016-11-02T13:10:30.842Z,4.92
2016-11-02T13:11:39.535Z,4.86
2016-11-02T13:12:48.232Z,4.82
2016-11-02T13:13:56.928Z,4.84
2016-11-02T13:15:05.619Z,4.75
2016-11-02T13:16:14.318Z,4.71
2016-11-02T13:17:23.090Z,4.76
2016-11-02T13:18:31.787Z,4.89
2016-11-02T13:19:40.486Z,4.86
2016-11-02T13:20:49.178Z,4.83
2016-11-02T13:21:57.872Z,4.9
2016-11-02T13:23:06.574Z,5.02
2016-11-02T13:24:15.272Z,5.01
2016-11-02T13:25:23.967Z,5.15
2016-11-02T13:26:32.661Z,5.26
2016-11-02T13:27:41.359Z,5.46
2016-11-02T13:28:50.055Z,5.65
2016-11-02T13:29:58.796Z,5.8
2016-11-02T13:31:07.495Z,5.8
2016-11-02T13:32:16.254Z,5.87
2016-11-02T13:33:24.950Z,5.84
2016-11-02T13:34:33.651Z,5.84
2016-11-02T13:35:42.347Z,5.88
2016-11-02T13:36:51.049Z,5.9
2016-11-02T13:37:59.741Z,5.79
2016-11-02T13:39:08.787Z,5.55
2016-11-02T13:40:17.829Z,5.69
2016-11-02T13:41:26.522Z,7.07
2016-11-02T13:42:35.249Z,8.14
2016-11-02T13:43:43.958Z,8.16
2016-11-02T13:44:52.653Z,7.59
2016-11-02T13:46:01.358Z,7.07
2016-11-02T13:47:10.050Z,6.56
2016-11-02T13:48:18.750Z,6.41
2016-11-02T13:49:27.450Z,6.06
2016-11-02T13:50:36.159Z,5.9
2016-11-02T13:51:44.865Z,5.79
2016-11-02T13:52:53.566Z,5.81
2016-11-02T13:54:02.268Z,5.91
2016-11-02T13:55:10.967Z,6.01
2016-11-02T13:56:19.733Z,5.98
2016-11-02T13:57:28.435Z,5.83
2016-11-02T13:58:37.132Z,5.77
2016-11-02T13:59:46.187Z,5.73
2016-11-02T14:00:54.879Z,5.34
2016-11-02T14:02:03.579Z,5.08
2016-11-02T14:03:12.604Z,4.95
2016-11-02T14:04:21.304Z,4.79
2016-11-02T14:05:30.018Z,4.67
2016-11-02T14:06:38.737Z,4.68
2016-11-02T14:07:47.435Z,4.52
2016-11-02T14:08:56.125Z,4.28
2016-11-02T14:10:04.819Z,4.13
2016-11-02T14:11:13.513Z,3.76
2016-11-02T14:12:22.572Z,3.66
2016-11-02T14:13:31.270Z,3.7
2016-11-02T14:14:39.969Z,3.56
2016-11-02T14:15:49.406Z,3.58
2016-11-02T14:16:58.105Z,3.43
2016-11-02T14:18:06.807Z,3.45
2016-11-02T14:19:15.497Z,3.4
2016-11-02T14:20:24.194Z,3.37
2016-11-02T14:21:32.884Z,3.27
2016-11-02T14:22:41.578Z,3.18
2016-11-02T14:23:50.278Z,3.22
2016-11-02T14:24:58.973Z,3.21
2016-11-02T14:26:07.702Z,3.18
2016-11-02T14:27:16.395Z,3.22
2016-11-02T14:28:25.086Z,3.24
2016-11-02T14:29:34.291Z,3.3
2016-11-02T14:30:44.065Z,3.34
2016-11-02T14:31:53.439Z,3.37
2016-11-02T14:33:02.350Z,3.48
2016-11-02T14:34:11.291Z,3.58
2016-11-02T14:35:20.985Z,3.63
2016-11-02T14:36:30.020Z,3.58
2016-11-02T14:37:38.876Z,3.67
2016-11-02T14:38:47.608Z,3.56
2016-11-02T14:39:56.300Z,3.45
2016-11-02T14:41:05.006Z,3.55
2016-11-02T14:42:13.710Z,3.56
2016-11-02T14:43:22.434Z,3.63
2016-11-02T14:44:31.157Z,3.55
2016-11-02T14:45:39.852Z,3.68
2016-11-02T14:46:48.860Z,3.73
2016-11-02T14:47:57.592Z,3.56
2016-11-02T14:49:06.296Z,3.58
2016-11-02T14:50:14.997Z,3.5
2016-11-02T14:51:23.695Z,3.31
2016-11-02T14:52:32.706Z,3.22
2016-11-02T14:53:41.400Z,3.26
2016-11-02T14:54:50.104Z,3.16
2016-11-02T14:55:58.802Z,3.08
2016-11-02T14:57:07.503Z,2.91
2016-11-02T14:58:16.201Z,2.87
2016-11-02T14:59:24.895Z,2.88
2016-11-02T15:00:33.636Z,2.79
2016-11-02T15:01:42.328Z,2.77
2016-11-02T15:02:51.034Z,2.68
2016-11-02T15:03:59.729Z,2.57
2016-11-02T15:05:08.441Z,2.58
2016-11-02T15:06:17.176Z,2.59
2016-11-02T15:07:25.873Z,2.55
2016-11-02T15:08:34.575Z,2.55
2016-11-02T15:09:43.268Z,2.59
2016-11-02T15:10:51.966Z,2.51
2016-11-02T15:12:00.665Z,2.55
2016-11-02T15:13:09.367Z,2.57
2016-11-02T15:14:18.375Z,2.62
2016-11-02T15:15:27.065Z,2.52
2016-11-02T15:16:35.759Z,2.47
2016-11-02T15:17:44.462Z,2.43